WAAA Airport Information

Runway Information
Runway 13 Length 8202 ft width 148 ft Elevation 44 ft Threshold N/A Heading 131
Runway 31 Length 8202 ft Width 148 ft Elevation 36 ft Threshold N/A Heading 311
Runway 03 Length 10171 ft width 148 ft Elevation N/A Threshold N/A Heading 29
Runway 21 Length 10171 ft Width 148 ft Elevation ft Threshold N/A Heading 209
Airport Frequencies
Type APP Name UJUNG PAND Frequency 119.4 MHZ
Type ATIS Name ATIS Frequency 126.25 MHZ
Type INFO Name UJUNG INFO Frequency 295.6 MHZ
Type TWR Name TWR Frequency 118.1 MHZ
Airport Navaids
Type VOR-DME Name Hasanuddin Frequency 114700 KHZ
Type NDB Name Hasanuddin Frequency 375 KHZ
Airport Weather Information & NOTAM
ADDS - METARS form results

(1506 UTC 27 November 2022)
Data provider http://aviationweather.gov/metar/data/
 
METAR text: WAAA 271500Z VRB01KT 8000 FEW019 25/23 Q1010 NOSIG
Conditions at: WAAA (HASANUDDIN/UJUNG, ID) observed 1500 UTC 27 November 2022
Temperature: 25.0°C (77°F)
Dewpoint: 23.0°C (73°F) [RH = 89%]
Pressure (altimeter): 29.82 inches Hg (1010.0 mb)
Winds: variable direction winds at 1 MPH (1 knots; 0.5 m/s)
Visibility: 5 miles ( 8 km)
Ceiling: at least 12,000 feet AGL
Clouds: few clouds at 1900 feet AGL
Weather: no significant weather observed at this time

METAR text: WAAA 271430Z 14002KT 8000 FEW019 25/23 Q1010 NOSIG
Conditions at: WAAA (HASANUDDIN/UJUNG, ID) observed 1430 UTC 27 November 2022
Temperature: 25.0°C (77°F)
Dewpoint: 23.0°C (73°F) [RH = 89%]
Pressure (altimeter): 29.82 inches Hg (1010.0 mb)
Winds: from the SE (140 degrees) at 2 MPH (2 knots; 1.0 m/s)
Visibility: 5 miles ( 8 km)
Ceiling: at least 12,000 feet AGL
Clouds: few clouds at 1900 feet AGL
Weather: no significant weather observed at this time

Forecast for: WAAA (HASANUDDIN/UJUNG, ID)
Text: TAF WAAA 271100Z 2712/2818 09003KT 8000 FEW019
Forecast period: 1200 UTC 27 November 2022 to 0200 UTC 28 November 2022
Forecast type: FROM: standard forecast or significant change
Winds: from the E (90 degrees) at 3 MPH (3 knots; 1.5 m/s)
Visibility: 5 miles (8 km)
Ceiling: at least 12,000 feet AGL
Clouds: few clouds at 1900 feet AGL
Weather: no significant weather forecast for this period
Text: BECMG 2802/2803 30010KT
Forecast period: 0200 to 1800 UTC 28 November 2022
Forecast type: BECOMING: Conditions expected to become as follows by 0300 UTC 28 November 2022
Winds: from the WNW (300 degrees) at 12 MPH (10 knots; 5.1 m/s)
Visibility: 5 miles (8 km)
Ceiling: at least 12,000 feet AGL
Clouds: few clouds at 1900 feet AGL
Weather: no significant weather forecast for this period